sensor_id;sensor_type;location;lat;lon;timestamp;P1;durP1;ratioP1;P2;durP2;ratioP2
17235;SDS011;8734;59.272;17.780;2023-07-29T00:02:09;5.63;;;2.03;;
17235;SDS011;8734;59.272;17.780;2023-07-29T00:04:38;2.93;;;1.80;;
17235;SDS011;8734;59.272;17.780;2023-07-29T00:07:07;2.83;;;2.40;;
17235;SDS011;8734;59.272;17.780;2023-07-29T00:09:36;1.90;;;1.80;;
17235;SDS011;8734;59.272;17.780;2023-07-29T00:12:04;3.57;;;1.97;;
17235;SDS011;8734;59.272;17.780;2023-07-29T00:14:33;2.40;;;1.53;;
17235;SDS011;8734;59.272;17.780;2023-07-29T00:17:01;4.33;;;1.67;;
17235;SDS011;8734;59.272;17.780;2023-07-29T00:19:30;4.70;;;1.70;;
17235;SDS011;8734;59.272;17.780;2023-07-29T00:21:58;1.73;;;1.57;;
17235;SDS011;8734;59.272;17.780;2023-07-29T00:24:28;5.57;;;1.67;;
17235;SDS011;8734;59.272;17.780;2023-07-29T00:26:56;5.17;;;1.90;;
17235;SDS011;8734;59.272;17.780;2023-07-29T00:29:25;5.00;;;1.80;;
17235;SDS011;8734;59.272;17.780;2023-07-29T00:31:53;2.60;;;2.00;;
17235;SDS011;8734;59.272;17.780;2023-07-29T00:34:21;4.97;;;1.83;;
17235;SDS011;8734;59.272;17.780;2023-07-29T00:36:50;4.87;;;1.73;;
17235;SDS011;8734;59.272;17.780;2023-07-29T00:39:18;3.17;;;1.80;;
17235;SDS011;8734;59.272;17.780;2023-07-29T00:41:48;8.03;;;1.90;;
17235;SDS011;8734;59.272;17.780;2023-07-29T00:44:16;2.53;;;1.70;;
17235;SDS011;8734;59.272;17.780;2023-07-29T00:46:45;4.60;;;1.93;;
17235;SDS011;8734;59.272;17.780;2023-07-29T00:49:15;2.10;;;1.80;;
17235;SDS011;8734;59.272;17.780;2023-07-29T00:51:43;2.97;;;2.13;;
17235;SDS011;8734;59.272;17.780;2023-07-29T00:54:11;3.33;;;1.73;;
17235;SDS011;8734;59.272;17.780;2023-07-29T00:56:40;3.10;;;1.70;;
17235;SDS011;8734;59.272;17.780;2023-07-29T00:59:09;2.37;;;1.97;;
17235;SDS011;8734;59.272;17.780;2023-07-29T01:01:38;4.03;;;1.97;;
17235;SDS011;8734;59.272;17.780;2023-07-29T01:04:07;3.10;;;1.90;;
17235;SDS011;8734;59.272;17.780;2023-07-29T01:06:38;4.00;;;2.10;;
17235;SDS011;8734;59.272;17.780;2023-07-29T01:09:15;3.00;;;1.90;;
17235;SDS011;8734;59.272;17.780;2023-07-29T01:11:52;4.90;;;1.87;;
17235;SDS011;8734;59.272;17.780;2023-07-29T01:14:32;2.80;;;1.90;;
17235;SDS011;8734;59.272;17.780;2023-07-29T01:17:07;3.57;;;1.90;;
17235;SDS011;8734;59.272;17.780;2023-07-29T01:19:47;2.97;;;1.50;;
17235;SDS011;8734;59.272;17.780;2023-07-29T01:22:23;2.30;;;1.70;;
17235;SDS011;8734;59.272;17.780;2023-07-29T01:24:54;2.37;;;2.00;;
17235;SDS011;8734;59.272;17.780;2023-07-29T01:27:22;4.40;;;2.23;;
17235;SDS011;8734;59.272;17.780;2023-07-29T01:29:50;3.87;;;2.10;;
17235;SDS011;8734;59.272;17.780;2023-07-29T01:32:28;2.40;;;1.90;;
17235;SDS011;8734;59.272;17.780;2023-07-29T01:35:03;8.13;;;2.43;;
17235;SDS011;8734;59.272;17.780;2023-07-29T01:37:41;3.30;;;1.80;;
17235;SDS011;8734;59.272;17.780;2023-07-29T01:40:15;2.63;;;1.60;;
17235;SDS011;8734;59.272;17.780;2023-07-29T01:42:44;1.93;;;1.73;;
17235;SDS011;8734;59.272;17.780;2023-07-29T01:45:13;3.57;;;1.57;;
17235;SDS011;8734;59.272;17.780;2023-07-29T01:47:43;2.33;;;1.90;;
17235;SDS011;8734;59.272;17.780;2023-07-29T01:50:11;7.33;;;2.07;;
17235;SDS011;8734;59.272;17.780;2023-07-29T01:52:40;2.90;;;2.10;;
17235;SDS011;8734;59.272;17.780;2023-07-29T01:55:08;2.43;;;1.90;;
17235;SDS011;8734;59.272;17.780;2023-07-29T01:57:38;3.97;;;1.97;;
17235;SDS011;8734;59.272;17.780;2023-07-29T02:00:06;3.77;;;2.77;;
17235;SDS011;8734;59.272;17.780;2023-07-29T02:02:36;2.67;;;1.67;;
17235;SDS011;8734;59.272;17.780;2023-07-29T02:05:04;3.77;;;2.30;;
17235;SDS011;8734;59.272;17.780;2023-07-29T02:07:33;10.53;;;2.33;;
17235;SDS011;8734;59.272;17.780;2023-07-29T02:10:01;3.67;;;1.80;;
17235;SDS011;8734;59.272;17.780;2023-07-29T02:12:30;3.23;;;2.67;;
17235;SDS011;8734;59.272;17.780;2023-07-29T02:15:00;3.97;;;2.07;;
17235;SDS011;8734;59.272;17.780;2023-07-29T02:17:28;5.40;;;2.20;;
17235;SDS011;8734;59.272;17.780;2023-07-29T02:19:57;2.60;;;2.00;;
17235;SDS011;8734;59.272;17.780;2023-07-29T02:22:25;4.33;;;2.10;;
17235;SDS011;8734;59.272;17.780;2023-07-29T02:24:53;3.17;;;2.13;;
17235;SDS011;8734;59.272;17.780;2023-07-29T02:27:21;3.20;;;2.30;;
17235;SDS011;8734;59.272;17.780;2023-07-29T02:29:51;2.43;;;1.90;;
17235;SDS011;8734;59.272;17.780;2023-07-29T02:32:21;6.17;;;1.93;;
17235;SDS011;8734;59.272;17.780;2023-07-29T02:34:50;3.53;;;2.00;;
17235;SDS011;8734;59.272;17.780;2023-07-29T02:37:18;5.60;;;2.30;;
17235;SDS011;8734;59.272;17.780;2023-07-29T02:39:46;6.70;;;2.20;;
17235;SDS011;8734;59.272;17.780;2023-07-29T02:42:15;2.53;;;2.10;;
17235;SDS011;8734;59.272;17.780;2023-07-29T02:44:43;5.40;;;1.80;;
17235;SDS011;8734;59.272;17.780;2023-07-29T02:47:11;2.00;;;1.60;;
17235;SDS011;8734;59.272;17.780;2023-07-29T02:49:41;3.40;;;1.70;;
17235;SDS011;8734;59.272;17.780;2023-07-29T02:52:09;2.87;;;2.10;;
17235;SDS011;8734;59.272;17.780;2023-07-29T02:54:37;6.43;;;2.07;;
17235;SDS011;8734;59.272;17.780;2023-07-29T02:57:06;2.63;;;1.87;;
17235;SDS011;8734;59.272;17.780;2023-07-29T02:59:34;5.30;;;2.07;;
17235;SDS011;8734;59.272;17.780;2023-07-29T03:02:02;4.27;;;1.70;;
17235;SDS011;8734;59.272;17.780;2023-07-29T03:04:31;4.27;;;1.90;;
17235;SDS011;8734;59.272;17.780;2023-07-29T03:07:01;8.10;;;2.73;;
17235;SDS011;8734;59.272;17.780;2023-07-29T03:09:29;4.60;;;1.80;;
17235;SDS011;8734;59.272;17.780;2023-07-29T03:11:59;5.83;;;2.23;;
17235;SDS011;8734;59.272;17.780;2023-07-29T03:14:27;1.67;;;1.57;;
17235;SDS011;8734;59.272;17.780;2023-07-29T03:16:57;2.33;;;1.90;;
17235;SDS011;8734;59.272;17.780;2023-07-29T03:19:29;2.53;;;1.80;;
17235;SDS011;8734;59.272;17.780;2023-07-29T03:21:57;2.60;;;1.87;;
17235;SDS011;8734;59.272;17.780;2023-07-29T03:24:27;6.37;;;1.97;;
17235;SDS011;8734;59.272;17.780;2023-07-29T03:26:55;2.63;;;1.97;;
17235;SDS011;8734;59.272;17.780;2023-07-29T03:29:23;2.83;;;2.10;;
17235;SDS011;8734;59.272;17.780;2023-07-29T03:31:52;4.43;;;2.27;;
17235;SDS011;8734;59.272;17.780;2023-07-29T03:34:21;2.30;;;1.73;;
17235;SDS011;8734;59.272;17.780;2023-07-29T03:36:49;10.90;;;2.10;;
17235;SDS011;8734;59.272;17.780;2023-07-29T03:39:18;6.30;;;1.83;;
17235;SDS011;8734;59.272;17.780;2023-07-29T03:41:47;2.90;;;2.10;;
17235;SDS011;8734;59.272;17.780;2023-07-29T03:44:16;6.40;;;2.30;;
17235;SDS011;8734;59.272;17.780;2023-07-29T03:46:44;2.73;;;2.17;;
17235;SDS011;8734;59.272;17.780;2023-07-29T03:49:13;4.07;;;2.30;;
17235;SDS011;8734;59.272;17.780;2023-07-29T03:51:41;4.77;;;2.30;;
17235;SDS011;8734;59.272;17.780;2023-07-29T03:54:10;2.80;;;2.10;;
17235;SDS011;8734;59.272;17.780;2023-07-29T03:56:38;3.40;;;2.27;;
17235;SDS011;8734;59.272;17.780;2023-07-29T03:59:08;4.93;;;2.10;;
17235;SDS011;8734;59.272;17.780;2023-07-29T04:01:36;7.00;;;2.40;;
17235;SDS011;8734;59.272;17.780;2023-07-29T04:04:04;3.50;;;2.20;;
17235;SDS011;8734;59.272;17.780;2023-07-29T04:06:33;7.93;;;2.27;;
17235;SDS011;8734;59.272;17.780;2023-07-29T04:09:01;3.30;;;2.13;;
17235;SDS011;8734;59.272;17.780;2023-07-29T04:11:30;4.70;;;2.33;;
17235;SDS011;8734;59.272;17.780;2023-07-29T04:13:58;3.77;;;2.20;;
17235;SDS011;8734;59.272;17.780;2023-07-29T04:16:28;4.43;;;2.60;;
17235;SDS011;8734;59.272;17.780;2023-07-29T04:18:56;4.00;;;2.60;;
17235;SDS011;8734;59.272;17.780;2023-07-29T04:21:24;8.40;;;3.20;;
17235;SDS011;8734;59.272;17.780;2023-07-29T04:23:53;5.37;;;2.77;;
17235;SDS011;8734;59.272;17.780;2023-07-29T04:26:21;2.83;;;2.50;;
17235;SDS011;8734;59.272;17.780;2023-07-29T04:28:50;3.73;;;2.40;;
17235;SDS011;8734;59.272;17.780;2023-07-29T04:31:18;4.00;;;2.20;;
17235;SDS011;8734;59.272;17.780;2023-07-29T04:33:48;4.13;;;2.30;;
17235;SDS011;8734;59.272;17.780;2023-07-29T04:36:16;4.53;;;2.37;;
17235;SDS011;8734;59.272;17.780;2023-07-29T04:38:44;3.23;;;2.30;;
17235;SDS011;8734;59.272;17.780;2023-07-29T04:41:12;4.97;;;2.40;;
17235;SDS011;8734;59.272;17.780;2023-07-29T04:43:41;3.13;;;2.30;;
17235;SDS011;8734;59.272;17.780;2023-07-29T04:46:09;3.10;;;2.07;;
17235;SDS011;8734;59.272;17.780;2023-07-29T04:48:38;2.90;;;2.10;;
17235;SDS011;8734;59.272;17.780;2023-07-29T04:51:07;4.67;;;2.40;;
17235;SDS011;8734;59.272;17.780;2023-07-29T04:53:36;6.67;;;2.10;;
17235;SDS011;8734;59.272;17.780;2023-07-29T04:56:04;2.03;;;1.83;;
17235;SDS011;8734;59.272;17.780;2023-07-29T04:58:32;2.90;;;1.90;;
17235;SDS011;8734;59.272;17.780;2023-07-29T05:01:02;3.47;;;1.97;;
17235;SDS011;8734;59.272;17.780;2023-07-29T05:03:30;5.60;;;2.50;;
17235;SDS011;8734;59.272;17.780;2023-07-29T05:05:58;3.83;;;2.23;;
17235;SDS011;8734;59.272;17.780;2023-07-29T05:08:28;3.30;;;2.07;;
17235;SDS011;8734;59.272;17.780;2023-07-29T05:10:57;3.47;;;2.37;;
17235;SDS011;8734;59.272;17.780;2023-07-29T05:13:25;2.30;;;1.97;;
17235;SDS011;8734;59.272;17.780;2023-07-29T05:15:54;3.87;;;1.77;;
17235;SDS011;8734;59.272;17.780;2023-07-29T05:18:22;4.30;;;1.77;;
17235;SDS011;8734;59.272;17.780;2023-07-29T05:20:51;2.10;;;1.80;;
17235;SDS011;8734;59.272;17.780;2023-07-29T05:23:19;4.17;;;2.00;;
17235;SDS011;8734;59.272;17.780;2023-07-29T05:25:49;3.40;;;2.13;;
17235;SDS011;8734;59.272;17.780;2023-07-29T05:28:17;3.00;;;1.80;;
17235;SDS011;8734;59.272;17.780;2023-07-29T05:30:45;2.23;;;1.80;;
17235;SDS011;8734;59.272;17.780;2023-07-29T05:33:14;2.07;;;1.60;;
17235;SDS011;8734;59.272;17.780;2023-07-29T05:35:42;2.90;;;1.70;;
17235;SDS011;8734;59.272;17.780;2023-07-29T05:38:10;2.63;;;1.77;;
17235;SDS011;8734;59.272;17.780;2023-07-29T05:40:39;3.67;;;1.90;;
17235;SDS011;8734;59.272;17.780;2023-07-29T05:43:09;2.60;;;1.70;;
17235;SDS011;8734;59.272;17.780;2023-07-29T05:45:37;3.20;;;1.80;;
17235;SDS011;8734;59.272;17.780;2023-07-29T05:48:05;2.47;;;1.57;;
17235;SDS011;8734;59.272;17.780;2023-07-29T05:50:34;5.83;;;1.30;;
17235;SDS011;8734;59.272;17.780;2023-07-29T05:53:02;4.27;;;1.70;;
17235;SDS011;8734;59.272;17.780;2023-07-29T05:55:30;7.07;;;1.90;;
17235;SDS011;8734;59.272;17.780;2023-07-29T05:57:58;4.73;;;1.73;;
17235;SDS011;8734;59.272;17.780;2023-07-29T06:00:28;5.90;;;1.80;;
17235;SDS011;8734;59.272;17.780;2023-07-29T06:02:57;2.60;;;1.87;;
17235;SDS011;8734;59.272;17.780;2023-07-29T06:05:25;4.07;;;1.30;;
17235;SDS011;8734;59.272;17.780;2023-07-29T06:07:53;4.33;;;1.60;;
17235;SDS011;8734;59.272;17.780;2023-07-29T06:10:22;3.30;;;1.80;;
17235;SDS011;8734;59.272;17.780;2023-07-29T06:12:50;1.60;;;1.30;;
17235;SDS011;8734;59.272;17.780;2023-07-29T06:15:18;3.83;;;1.50;;
17235;SDS011;8734;59.272;17.780;2023-07-29T06:17:50;1.40;;;1.30;;
17235;SDS011;8734;59.272;17.780;2023-07-29T06:20:22;2.47;;;1.23;;
17235;SDS011;8734;59.272;17.780;2023-07-29T06:22:51;1.90;;;1.40;;
17235;SDS011;8734;59.272;17.780;2023-07-29T06:25:19;4.30;;;1.37;;
17235;SDS011;8734;59.272;17.780;2023-07-29T06:27:49;4.10;;;1.60;;
17235;SDS011;8734;59.272;17.780;2023-07-29T06:30:17;1.53;;;1.33;;
17235;SDS011;8734;59.272;17.780;2023-07-29T06:32:45;3.13;;;1.50;;
17235;SDS011;8734;59.272;17.780;2023-07-29T06:35:15;1.60;;;1.33;;
17235;SDS011;8734;59.272;17.780;2023-07-29T06:37:43;1.43;;;1.20;;
17235;SDS011;8734;59.272;17.780;2023-07-29T06:40:12;2.77;;;1.43;;
17235;SDS011;8734;59.272;17.780;2023-07-29T06:42:40;1.60;;;1.27;;
17235;SDS011;8734;59.272;17.780;2023-07-29T06:45:08;6.20;;;1.83;;
17235;SDS011;8734;59.272;17.780;2023-07-29T06:47:38;6.80;;;1.40;;
17235;SDS011;8734;59.272;17.780;2023-07-29T06:50:06;1.77;;;1.27;;
17235;SDS011;8734;59.272;17.780;2023-07-29T06:52:36;3.03;;;1.10;;
17235;SDS011;8734;59.272;17.780;2023-07-29T06:55:07;2.03;;;1.30;;
17235;SDS011;8734;59.272;17.780;2023-07-29T06:57:35;4.30;;;1.33;;
17235;SDS011;8734;59.272;17.780;2023-07-29T07:00:04;2.20;;;1.20;;
17235;SDS011;8734;59.272;17.780;2023-07-29T07:02:35;3.67;;;1.03;;
17235;SDS011;8734;59.272;17.780;2023-07-29T07:05:04;2.20;;;1.20;;
17235;SDS011;8734;59.272;17.780;2023-07-29T07:07:32;1.33;;;1.23;;
17235;SDS011;8734;59.272;17.780;2023-07-29T07:10:02;3.17;;;1.10;;
17235;SDS011;8734;59.272;17.780;2023-07-29T07:12:31;4.97;;;1.30;;
17235;SDS011;8734;59.272;17.780;2023-07-29T07:14:59;3.80;;;1.10;;
17235;SDS011;8734;59.272;17.780;2023-07-29T07:17:28;1.70;;;1.10;;
17235;SDS011;8734;59.272;17.780;2023-07-29T07:19:56;3.37;;;1.30;;
17235;SDS011;8734;59.272;17.780;2023-07-29T07:22:24;1.70;;;1.30;;
17235;SDS011;8734;59.272;17.780;2023-07-29T07:24:53;5.10;;;1.30;;
17235;SDS011;8734;59.272;17.780;2023-07-29T07:27:22;2.47;;;1.30;;
17235;SDS011;8734;59.272;17.780;2023-07-29T07:29:51;1.23;;;1.10;;
17235;SDS011;8734;59.272;17.780;2023-07-29T07:32:19;1.53;;;1.20;;
17235;SDS011;8734;59.272;17.780;2023-07-29T07:34:48;3.17;;;1.17;;
17235;SDS011;8734;59.272;17.780;2023-07-29T07:37:16;1.30;;;0.90;;
17235;SDS011;8734;59.272;17.780;2023-07-29T07:39:44;6.73;;;1.30;;
17235;SDS011;8734;59.272;17.780;2023-07-29T07:42:13;3.13;;;1.10;;
17235;SDS011;8734;59.272;17.780;2023-07-29T07:44:42;2.37;;;1.43;;
17235;SDS011;8734;59.272;17.780;2023-07-29T07:47:11;2.40;;;1.30;;
17235;SDS011;8734;59.272;17.780;2023-07-29T07:49:39;3.07;;;1.13;;
17235;SDS011;8734;59.272;17.780;2023-07-29T07:52:07;1.47;;;1.00;;
17235;SDS011;8734;59.272;17.780;2023-07-29T07:54:35;3.73;;;1.10;;
17235;SDS011;8734;59.272;17.780;2023-07-29T07:57:04;3.00;;;1.13;;
17235;SDS011;8734;59.272;17.780;2023-07-29T07:59:33;1.10;;;1.00;;
17235;SDS011;8734;59.272;17.780;2023-07-29T08:02:03;6.75;;;0.98;;
17235;SDS011;8734;59.272;17.780;2023-07-29T08:04:31;3.83;;;1.23;;
17235;SDS011;8734;59.272;17.780;2023-07-29T08:06:59;3.08;;;1.08;;
17235;SDS011;8734;59.272;17.780;2023-07-29T08:09:27;3.50;;;0.90;;
17235;SDS011;8734;59.272;17.780;2023-07-29T08:11:56;1.10;;;1.00;;
17235;SDS011;8734;59.272;17.780;2023-07-29T08:14:24;11.48;;;1.10;;
17235;SDS011;8734;59.272;17.780;2023-07-29T08:16:52;0.88;;;0.88;;
17235;SDS011;8734;59.272;17.780;2023-07-29T08:19:22;3.45;;;1.00;;
17235;SDS011;8734;59.272;17.780;2023-07-29T08:21:51;2.20;;;0.90;;
17235;SDS011;8734;59.272;17.780;2023-07-29T08:24:19;1.95;;;1.00;;
17235;SDS011;8734;59.272;17.780;2023-07-29T08:26:47;3.65;;;1.13;;
17235;SDS011;8734;59.272;17.780;2023-07-29T08:29:16;2.80;;;1.00;;
17235;SDS011;8734;59.272;17.780;2023-07-29T08:31:44;1.55;;;1.10;;
17235;SDS011;8734;59.272;17.780;2023-07-29T08:34:12;6.38;;;0.93;;
17235;SDS011;8734;59.272;17.780;2023-07-29T08:36:42;1.10;;;1.00;;
17235;SDS011;8734;59.272;17.780;2023-07-29T08:39:10;5.78;;;1.00;;
17235;SDS011;8734;59.272;17.780;2023-07-29T08:41:41;3.08;;;1.23;;
17235;SDS011;8734;59.272;17.780;2023-07-29T08:44:17;1.90;;;1.00;;
17235;SDS011;8734;59.272;17.780;2023-07-29T08:46:50;2.30;;;1.02;;
17235;SDS011;8734;59.272;17.780;2023-07-29T08:49:20;2.15;;;0.88;;
17235;SDS011;8734;59.272;17.780;2023-07-29T08:51:51;1.90;;;0.80;;
17235;SDS011;8734;59.272;17.780;2023-07-29T08:54:22;2.08;;;1.10;;
17235;SDS011;8734;59.272;17.780;2023-07-29T08:56:50;1.38;;;0.80;;
17235;SDS011;8734;59.272;17.780;2023-07-29T08:59:19;2.92;;;0.80;;
17235;SDS011;8734;59.272;17.780;2023-07-29T09:01:47;1.95;;;0.75;;
17235;SDS011;8734;59.272;17.780;2023-07-29T09:04:16;2.25;;;0.70;;
17235;SDS011;8734;59.272;17.780;2023-07-29T09:06:45;1.25;;;0.65;;
17235;SDS011;8734;59.272;17.780;2023-07-29T09:09:16;1.15;;;0.88;;
17235;SDS011;8734;59.272;17.780;2023-07-29T09:11:44;0.75;;;0.75;;
17235;SDS011;8734;59.272;17.780;2023-07-29T09:14:12;4.40;;;0.90;;
17235;SDS011;8734;59.272;17.780;2023-07-29T09:16:41;2.83;;;1.02;;
17235;SDS011;8734;59.272;17.780;2023-07-29T09:19:10;1.45;;;0.80;;
17235;SDS011;8734;59.272;17.780;2023-07-29T09:21:39;2.72;;;1.23;;
17235;SDS011;8734;59.272;17.780;2023-07-29T09:24:08;1.50;;;1.00;;
17235;SDS011;8734;59.272;17.780;2023-07-29T09:26:38;2.65;;;1.00;;
17235;SDS011;8734;59.272;17.780;2023-07-29T09:29:15;1.10;;;0.60;;
17235;SDS011;8734;59.272;17.780;2023-07-29T09:31:49;3.03;;;0.90;;
17235;SDS011;8734;59.272;17.780;2023-07-29T09:34:17;1.13;;;0.95;;
17235;SDS011;8734;59.272;17.780;2023-07-29T09:36:45;1.00;;;0.90;;
17235;SDS011;8734;59.272;17.780;2023-07-29T09:39:13;1.60;;;1.05;;
17235;SDS011;8734;59.272;17.780;2023-07-29T09:41:45;2.58;;;0.82;;
17235;SDS011;8734;59.272;17.780;2023-07-29T09:44:15;2.50;;;0.82;;
17235;SDS011;8734;59.272;17.780;2023-07-29T09:46:45;2.08;;;0.80;;
17235;SDS011;8734;59.272;17.780;2023-07-29T09:49:14;5.68;;;1.63;;
17235;SDS011;8734;59.272;17.780;2023-07-29T09:51:42;6.95;;;0.93;;
17235;SDS011;8734;59.272;17.780;2023-07-29T09:54:10;2.15;;;0.75;;
17235;SDS011;8734;59.272;17.780;2023-07-29T09:56:41;0.70;;;0.70;;
17235;SDS011;8734;59.272;17.780;2023-07-29T09:59:11;1.58;;;0.80;;
17235;SDS011;8734;59.272;17.780;2023-07-29T10:01:41;0.95;;;0.73;;
17235;SDS011;8734;59.272;17.780;2023-07-29T10:04:09;1.77;;;0.90;;
17235;SDS011;8734;59.272;17.780;2023-07-29T10:06:40;2.03;;;0.85;;
17235;SDS011;8734;59.272;17.780;2023-07-29T10:09:10;1.00;;;0.90;;
17235;SDS011;8734;59.272;17.780;2023-07-29T10:11:39;1.75;;;0.90;;
17235;SDS011;8734;59.272;17.780;2023-07-29T10:14:10;0.82;;;0.63;;
17235;SDS011;8734;59.272;17.780;2023-07-29T10:16:39;2.05;;;0.68;;
17235;SDS011;8734;59.272;17.780;2023-07-29T10:19:09;0.73;;;0.60;;
17235;SDS011;8734;59.272;17.780;2023-07-29T10:21:39;1.48;;;0.65;;
17235;SDS011;8734;59.272;17.780;2023-07-29T10:24:11;1.75;;;0.85;;
17235;SDS011;8734;59.272;17.780;2023-07-29T10:26:43;1.95;;;0.80;;
17235;SDS011;8734;59.272;17.780;2023-07-29T10:29:19;0.70;;;0.68;;
17235;SDS011;8734;59.272;17.780;2023-07-29T10:31:51;3.75;;;1.00;;
17235;SDS011;8734;59.272;17.780;2023-07-29T10:34:21;1.75;;;0.85;;
17235;SDS011;8734;59.272;17.780;2023-07-29T10:36:49;1.05;;;0.75;;
17235;SDS011;8734;59.272;17.780;2023-07-29T10:39:18;1.35;;;0.70;;
17235;SDS011;8734;59.272;17.780;2023-07-29T10:41:57;2.40;;;0.80;;
17235;SDS011;8734;59.272;17.780;2023-07-29T10:44:47;1.83;;;0.68;;
17235;SDS011;8734;59.272;17.780;2023-07-29T10:47:23;4.30;;;0.90;;
17235;SDS011;8734;59.272;17.780;2023-07-29T10:49:54;0.93;;;0.63;;
17235;SDS011;8734;59.272;17.780;2023-07-29T10:52:30;0.70;;;0.70;;
17235;SDS011;8734;59.272;17.780;2023-07-29T10:55:05;0.95;;;0.70;;
17235;SDS011;8734;59.272;17.780;2023-07-29T10:57:52;1.55;;;0.90;;
17235;SDS011;8734;59.272;17.780;2023-07-29T11:00:39;1.15;;;0.80;;
17235;SDS011;8734;59.272;17.780;2023-07-29T11:03:09;5.20;;;1.10;;
17235;SDS011;8734;59.272;17.780;2023-07-29T11:05:46;1.73;;;1.10;;
17235;SDS011;8734;59.272;17.780;2023-07-29T11:08:16;1.40;;;0.85;;
17235;SDS011;8734;59.272;17.780;2023-07-29T11:11:02;8.75;;;1.05;;
17235;SDS011;8734;59.272;17.780;2023-07-29T11:13:32;1.83;;;0.70;;
17235;SDS011;8734;59.272;17.780;2023-07-29T11:16:03;1.15;;;0.80;;
17235;SDS011;8734;59.272;17.780;2023-07-29T11:18:33;6.38;;;0.70;;
17235;SDS011;8734;59.272;17.780;2023-07-29T11:21:03;0.57;;;0.57;;
17235;SDS011;8734;59.272;17.780;2023-07-29T11:23:32;2.83;;;0.77;;
17235;SDS011;8734;59.272;17.780;2023-07-29T11:26:02;0.95;;;0.80;;
17235;SDS011;8734;59.272;17.780;2023-07-29T11:28:37;3.58;;;1.90;;
17235;SDS011;8734;59.272;17.780;2023-07-29T11:31:07;1.75;;;0.70;;
17235;SDS011;8734;59.272;17.780;2023-07-29T11:33:38;1.50;;;0.70;;
17235;SDS011;8734;59.272;17.780;2023-07-29T11:36:16;1.65;;;0.85;;
17235;SDS011;8734;59.272;17.780;2023-07-29T11:38:45;1.02;;;0.80;;
17235;SDS011;8734;59.272;17.780;2023-07-29T11:41:18;1.60;;;0.70;;
17235;SDS011;8734;59.272;17.780;2023-07-29T11:43:48;1.63;;;1.00;;
17235;SDS011;8734;59.272;17.780;2023-07-29T11:46:21;1.35;;;1.13;;
17235;SDS011;8734;59.272;17.780;2023-07-29T11:48:50;2.28;;;0.90;;
17235;SDS011;8734;59.272;17.780;2023-07-29T11:51:21;2.22;;;0.85;;
17235;SDS011;8734;59.272;17.780;2023-07-29T11:53:49;1.25;;;0.90;;
17235;SDS011;8734;59.272;17.780;2023-07-29T11:56:18;1.33;;;0.70;;
17235;SDS011;8734;59.272;17.780;2023-07-29T11:58:47;2.20;;;0.80;;
17235;SDS011;8734;59.272;17.780;2023-07-29T12:01:16;2.05;;;0.73;;
17235;SDS011;8734;59.272;17.780;2023-07-29T12:03:46;1.35;;;0.80;;
17235;SDS011;8734;59.272;17.780;2023-07-29T12:06:15;1.45;;;0.82;;
17235;SDS011;8734;59.272;17.780;2023-07-29T12:08:44;2.28;;;0.90;;
17235;SDS011;8734;59.272;17.780;2023-07-29T12:11:13;0.82;;;0.80;;
17235;SDS011;8734;59.272;17.780;2023-07-29T12:13:42;1.35;;;0.70;;
17235;SDS011;8734;59.272;17.780;2023-07-29T12:16:15;0.65;;;0.60;;
17235;SDS011;8734;59.272;17.780;2023-07-29T12:18:44;1.35;;;0.85;;
17235;SDS011;8734;59.272;17.780;2023-07-29T12:21:16;2.72;;;0.80;;
17235;SDS011;8734;59.272;17.780;2023-07-29T12:23:46;1.08;;;0.85;;
17235;SDS011;8734;59.272;17.780;2023-07-29T12:26:14;2.10;;;0.80;;
17235;SDS011;8734;59.272;17.780;2023-07-29T12:28:45;2.78;;;1.08;;
17235;SDS011;8734;59.272;17.780;2023-07-29T12:31:14;0.60;;;0.60;;
17235;SDS011;8734;59.272;17.780;2023-07-29T12:33:42;3.13;;;0.77;;
17235;SDS011;8734;59.272;17.780;2023-07-29T12:36:11;2.35;;;0.98;;
17235;SDS011;8734;59.272;17.780;2023-07-29T12:38:41;0.63;;;0.63;;
17235;SDS011;8734;59.272;17.780;2023-07-29T12:41:10;1.50;;;0.75;;
17235;SDS011;8734;59.272;17.780;2023-07-29T12:43:38;1.95;;;0.70;;
17235;SDS011;8734;59.272;17.780;2023-07-29T12:46:07;0.95;;;0.75;;
17235;SDS011;8734;59.272;17.780;2023-07-29T12:48:35;1.23;;;0.60;;
17235;SDS011;8734;59.272;17.780;2023-07-29T12:51:03;1.98;;;1.02;;
17235;SDS011;8734;59.272;17.780;2023-07-29T12:53:32;0.95;;;0.90;;
17235;SDS011;8734;59.272;17.780;2023-07-29T12:56:01;1.20;;;0.93;;
17235;SDS011;8734;59.272;17.780;2023-07-29T12:58:30;0.98;;;0.70;;
17235;SDS011;8734;59.272;17.780;2023-07-29T13:00:58;0.93;;;0.80;;
17235;SDS011;8734;59.272;17.780;2023-07-29T13:03:26;4.22;;;0.88;;
17235;SDS011;8734;59.272;17.780;2023-07-29T13:05:55;4.03;;;0.80;;
17235;SDS011;8734;59.272;17.780;2023-07-29T13:08:24;1.77;;;0.80;;
17235;SDS011;8734;59.272;17.780;2023-07-29T13:10:52;1.38;;;0.80;;
17235;SDS011;8734;59.272;17.780;2023-07-29T13:13:21;3.00;;;0.90;;
17235;SDS011;8734;59.272;17.780;2023-07-29T13:15:50;3.25;;;1.13;;
17235;SDS011;8734;59.272;17.780;2023-07-29T13:18:19;1.52;;;0.98;;
17235;SDS011;8734;59.272;17.780;2023-07-29T13:20:48;0.93;;;0.80;;
17235;SDS011;8734;59.272;17.780;2023-07-29T13:23:16;2.30;;;0.77;;
17235;SDS011;8734;59.272;17.780;2023-07-29T13:25:45;1.38;;;0.77;;
17235;SDS011;8734;59.272;17.780;2023-07-29T13:28:13;9.27;;;0.70;;
17235;SDS011;8734;59.272;17.780;2023-07-29T13:30:43;5.90;;;1.00;;
17235;SDS011;8734;59.272;17.780;2023-07-29T13:33:11;1.15;;;0.80;;
17235;SDS011;8734;59.272;17.780;2023-07-29T13:35:39;2.33;;;0.80;;
17235;SDS011;8734;59.272;17.780;2023-07-29T13:38:08;7.15;;;0.88;;
17235;SDS011;8734;59.272;17.780;2023-07-29T13:40:37;1.67;;;0.60;;
17235;SDS011;8734;59.272;17.780;2023-07-29T13:43:05;1.65;;;0.80;;
17235;SDS011;8734;59.272;17.780;2023-07-29T13:45:34;5.72;;;0.90;;
17235;SDS011;8734;59.272;17.780;2023-07-29T13:48:04;1.85;;;0.90;;
17235;SDS011;8734;59.272;17.780;2023-07-29T13:50:32;1.65;;;1.00;;
17235;SDS011;8734;59.272;17.780;2023-07-29T13:53:01;1.55;;;0.90;;
17235;SDS011;8734;59.272;17.780;2023-07-29T13:55:29;3.58;;;0.88;;
17235;SDS011;8734;59.272;17.780;2023-07-29T13:57:57;1.58;;;0.88;;
17235;SDS011;8734;59.272;17.780;2023-07-29T14:00:26;1.05;;;0.95;;
17235;SDS011;8734;59.272;17.780;2023-07-29T14:02:54;2.35;;;1.10;;
17235;SDS011;8734;59.272;17.780;2023-07-29T14:05:23;3.50;;;1.52;;
17235;SDS011;8734;59.272;17.780;2023-07-29T14:07:52;2.10;;;0.98;;
17235;SDS011;8734;59.272;17.780;2023-07-29T14:10:20;2.65;;;0.77;;
17235;SDS011;8734;59.272;17.780;2023-07-29T14:12:48;3.40;;;1.17;;
17235;SDS011;8734;59.272;17.780;2023-07-29T14:15:17;1.73;;;1.10;;
17235;SDS011;8734;59.272;17.780;2023-07-29T14:17:45;3.17;;;1.10;;
17235;SDS011;8734;59.272;17.780;2023-07-29T14:20:14;0.80;;;0.75;;
17235;SDS011;8734;59.272;17.780;2023-07-29T14:22:44;1.83;;;1.00;;
17235;SDS011;8734;59.272;17.780;2023-07-29T14:25:12;1.75;;;1.00;;
17235;SDS011;8734;59.272;17.780;2023-07-29T14:27:42;1.17;;;0.85;;
17235;SDS011;8734;59.272;17.780;2023-07-29T14:30:10;1.33;;;1.00;;
17235;SDS011;8734;59.272;17.780;2023-07-29T14:32:39;1.15;;;1.05;;
17235;SDS011;8734;59.272;17.780;2023-07-29T14:35:07;1.65;;;0.90;;
17235;SDS011;8734;59.272;17.780;2023-07-29T14:37:36;5.50;;;1.15;;
17235;SDS011;8734;59.272;17.780;2023-07-29T14:40:07;0.98;;;0.85;;
17235;SDS011;8734;59.272;17.780;2023-07-29T14:42:35;1.65;;;1.10;;
17235;SDS011;8734;59.272;17.780;2023-07-29T14:45:04;1.42;;;1.15;;
17235;SDS011;8734;59.272;17.780;2023-07-29T14:47:33;1.52;;;1.10;;
17235;SDS011;8734;59.272;17.780;2023-07-29T14:50:02;1.70;;;1.40;;
17235;SDS011;8734;59.272;17.780;2023-07-29T14:52:30;3.03;;;1.20;;
17235;SDS011;8734;59.272;17.780;2023-07-29T14:54:58;2.03;;;1.00;;
17235;SDS011;8734;59.272;17.780;2023-07-29T14:57:28;2.63;;;1.08;;
17235;SDS011;8734;59.272;17.780;2023-07-29T14:59:56;4.47;;;1.40;;
17235;SDS011;8734;59.272;17.780;2023-07-29T15:02:25;1.70;;;1.05;;